Time;durP1;ratioP1;P1;durP2;ratioP2;P2;SDS_P1;SDS_P2;PMS_P1;PMS_P2;Temp;Humidity;BMP_temperature;BMP_pressure;BME280_temperature;BME280_humidity;BME280_pressure;Samples;Min_cycle;Max_cycle;Signal;HPM_P1;HPM_P2
2024/03/18 00:00:00;;;;;;;5.90;3.83;;;15.10;99.90;;;;;;5097855;28;20576;-41
2024/03/18 00:02:30;;;;;;;4.40;3.20;;;15.40;99.90;;;;;;5099688;28;20172;-41
2024/03/18 00:04:56;;;;;;;4.87;3.03;;;15.50;99.90;;;;;;5100437;28;20214;-41
2024/03/18 00:07:22;;;;;;;4.53;3.40;;;15.70;1.00;;;;;;5099902;28;20433;-41
2024/03/18 00:09:48;;;;;;;3.37;3.07;;;15.80;99.90;;;;;;5100845;28;20496;-42
2024/03/18 00:12:14;;;;;;;3.80;3.00;;;15.90;99.90;;;;;;5100708;28;20859;-42
2024/03/18 00:14:43;;;;;;;4.73;3.47;;;16.00;1.00;;;;;;5099992;28;20229;-42
2024/03/18 00:17:09;;;;;;;4.77;3.70;;;16.10;1.00;;;;;;5099783;28;20193;-42
2024/03/18 00:19:35;;;;;;;4.40;3.73;;;16.10;1.00;;;;;;5100001;28;20430;-41
2024/03/18 00:22:01;;;;;;;8.13;4.50;;;16.20;99.90;;;;;;5099893;28;20415;-40
2024/03/18 00:24:27;;;;;;;4.73;3.97;;;16.20;99.90;;;;;;5099183;28;20169;-43
2024/03/18 00:26:52;;;;;;;6.00;5.00;;;16.30;99.90;;;;;;5099739;28;20296;-41
2024/03/18 00:29:18;;;;;;;7.07;4.50;;;16.30;99.90;;;;;;5099867;28;20446;-42
2024/03/18 00:31:44;;;;;;;6.83;4.63;;;16.40;99.10;;;;;;5100330;28;20176;-43
2024/03/18 00:34:10;;;;;;;6.73;4.60;;;16.40;43.90;;;;;;5081618;28;20177;-41
2024/03/18 00:36:39;;;;;;;5.73;4.77;;;16.40;1.00;;;;;;5098292;28;20426;-40
2024/03/18 00:39:06;;;;;;;5.90;4.47;;;16.40;1.00;;;;;;5098693;28;20248;-40
2024/03/18 00:41:48;;;;;;;5.53;4.87;;;16.40;1.00;;;;;;5098903;28;20502;-42
2024/03/18 00:44:23;;;;;;;6.10;4.13;;;16.50;1.00;;;;;;5081576;28;20537;-42
2024/03/18 00:46:49;;;;;;;4.40;4.00;;;16.50;1.00;;;;;;5098966;28;20456;-42
2024/03/18 00:49:14;;;;;;;5.13;3.47;;;16.50;1.00;;;;;;5098073;28;20423;-40
2024/03/18 00:51:41;;;;;;;5.83;4.27;;;16.50;1.00;;;;;;5099278;28;20454;-41
2024/03/18 00:54:09;;;;;;;5.67;4.10;;;16.50;1.00;;;;;;5099273;28;20320;-41
2024/03/18 00:56:35;;;;;;;7.03;4.10;;;16.50;1.00;;;;;;5098130;28;20455;-42
2024/03/18 00:59:01;;;;;;;5.83;5.17;;;16.50;1.00;;;;;;5080345;28;20426;-42
2024/03/18 01:01:30;;;;;;;6.60;5.20;;;16.40;1.00;;;;;;5098007;28;20431;-43
2024/03/18 01:03:56;;;;;;;7.00;5.43;;;16.10;99.90;;;;;;5099070;28;20221;-41
2024/03/18 01:06:24;;;;;;;6.23;5.60;;;15.80;99.90;;;;;;5098632;28;20565;-41
2024/03/18 01:08:51;;;;;;;6.30;5.70;;;15.40;1.00;;;;;;5098316;28;20414;-41
2024/03/18 01:11:17;;;;;;;7.33;6.63;;;15.10;1.00;;;;;;5097342;28;20630;-41
2024/03/18 01:13:47;;;;;;;7.17;6.53;;;14.80;1.00;;;;;;5098879;28;20901;-45
2024/03/18 01:16:33;;;;;;;6.40;5.80;;;14.50;1.00;;;;;;5098801;28;20176;-41
2024/03/18 01:19:01;;;;;;;5.77;5.27;;;14.30;99.90;;;;;;5098300;28;20525;-40
2024/03/18 01:21:28;;;;;;;7.23;6.23;;;14.10;99.90;;;;;;5098146;28;20415;-42
2024/03/18 01:23:53;;;;;;;6.43;5.80;;;13.90;1.00;;;;;;5098529;28;20430;-42
2024/03/18 01:26:22;;;;;;;7.53;6.53;;;13.80;99.90;;;;;;5098491;28;20466;-46
2024/03/18 01:28:48;;;;;;;7.37;6.33;;;13.60;1.00;;;;;;5099006;28;20242;-45
2024/03/18 01:31:13;;;;;;;6.03;5.07;;;13.50;99.90;;;;;;5098238;28;20426;-41
2024/03/18 01:33:39;;;;;;;7.83;6.80;;;13.50;1.00;;;;;;5098218;28;20447;-41
2024/03/18 01:36:05;;;;;;;8.03;7.23;;;13.40;27.00;;;;;;5098516;28;20176;-41
2024/03/18 01:38:33;;;;;;;8.20;6.50;;;13.30;1.00;;;;;;5098590;28;20210;-41
2024/03/18 01:40:59;;;;;;;7.17;6.47;;;13.20;98.60;;;;;;5098604;28;20566;-41
2024/03/18 01:43:24;;;;;;;7.27;6.30;;;13.20;99.90;;;;;;5080541;28;20717;-43
2024/03/18 01:45:50;;;;;;;9.40;6.60;;;13.10;1.00;;;;;;5098703;28;20199;-40
2024/03/18 01:48:16;;;;;;;7.50;6.80;;;13.10;1.00;;;;;;5098608;28;20175;-40
2024/03/18 01:50:45;;;;;;;7.50;6.80;;;13.00;99.90;;;;;;5097498;28;20181;-42
2024/03/18 01:53:12;;;;;;;6.97;6.23;;;13.00;99.90;;;;;;5098439;28;20470;-40
2024/03/18 01:55:38;;;;;;;7.90;6.40;;;12.90;99.90;;;;;;5097492;28;20430;-41
2024/03/18 01:58:05;;;;;;;7.57;6.83;;;12.90;1.00;;;;;;5097993;28;20508;-40
2024/03/18 02:00:35;;;;;;;7.37;6.50;;;12.90;1.00;;;;;;5097538;28;20430;-40
2024/03/18 02:03:07;;;;;;;7.10;6.50;;;12.90;1.00;;;;;;5097508;28;20817;-42
2024/03/18 02:05:35;;;;;;;8.23;6.57;;;12.80;1.00;;;;;;5098122;28;20616;-40
2024/03/18 02:08:01;;;;;;;6.93;6.33;;;12.80;1.00;;;;;;5098130;28;20418;-42
2024/03/18 02:10:27;;;;;;;6.70;6.10;;;12.80;64.60;;;;;;5097836;28;20525;-40
2024/03/18 02:12:59;;;;;;;7.47;6.53;;;12.80;99.90;;;;;;5098241;28;20402;-40
2024/03/18 02:15:26;;;;;;;6.57;5.80;;;12.70;99.90;;;;;;5098132;28;20173;-41
2024/03/18 02:17:53;;;;;;;7.73;7.00;;;12.70;99.90;;;;;;5098070;28;20462;-42
2024/03/18 02:20:20;;;;;;;6.93;6.30;;;12.70;99.90;;;;;;5098115;28;20496;-40
2024/03/18 02:22:46;;;;;;;6.87;6.17;;;12.70;99.90;;;;;;5101601;28;20461;-41
2024/03/18 02:25:11;;;;;;;7.57;6.77;;;12.70;99.90;;;;;;5102007;28;20473;-40
2024/03/18 02:27:38;;;;;;;7.10;6.40;;;12.70;99.90;;;;;;5101948;28;20418;-41
2024/03/18 02:30:04;;;;;;;8.00;7.20;;;12.60;99.90;;;;;;5103048;28;20444;-42
2024/03/18 02:32:31;;;;;;;7.70;6.93;;;12.60;1.00;;;;;;5083632;28;20211;-41
2024/03/18 02:35:00;;;;;;;6.87;6.13;;;12.60;1.00;;;;;;5097822;28;20422;-41
2024/03/18 02:37:26;;;;;;;7.00;6.30;;;12.60;1.00;;;;;;5099045;28;20545;-41
2024/03/18 02:39:54;;;;;;;8.50;6.00;;;12.60;1.00;;;;;;5099005;28;20925;-41
2024/03/18 02:42:20;;;;;;;7.57;6.37;;;12.60;1.00;;;;;;5080483;28;20203;-42
2024/03/18 02:44:46;;;;;;;6.40;5.80;;;12.60;1.00;;;;;;5098067;28;20527;-40
2024/03/18 02:47:11;;;;;;;8.47;5.77;;;12.60;1.00;;;;;;5097979;28;20571;-40
2024/03/18 02:49:39;;;;;;;6.23;5.63;;;12.60;1.00;;;;;;5098591;28;20180;-41
2024/03/18 02:52:04;;;;;;;8.23;6.17;;;12.50;1.00;;;;;;5098880;28;20493;-40
2024/03/18 02:54:33;;;;;;;6.37;5.17;;;12.50;1.00;;;;;;5099416;28;20791;-40
2024/03/18 02:56:58;;;;;;;6.80;5.77;;;12.50;1.00;;;;;;5081080;28;20181;-41
2024/03/18 02:59:24;;;;;;;8.07;5.80;;;12.50;1.00;;;;;;5099146;28;20483;-41
2024/03/18 03:01:50;;;;;;;5.60;5.10;;;12.50;1.00;;;;;;5100130;28;20190;-41
2024/03/18 03:04:18;;;;;;;6.90;5.57;;;12.50;1.00;;;;;;5101443;28;20164;-41
2024/03/18 03:06:44;;;;;;;7.20;6.13;;;12.50;1.00;;;;;;5100703;28;20275;-41
2024/03/18 03:09:09;;;;;;;6.17;5.57;;;12.50;1.00;;;;;;5100891;28;20429;-43
2024/03/18 03:11:38;;;;;;;6.23;5.73;;;12.50;1.00;;;;;;5101577;28;20180;-40
2024/03/18 03:14:04;;;;;;;5.40;4.90;;;12.40;1.00;;;;;;5100834;28;20168;-41
2024/03/18 03:16:29;;;;;;;6.60;5.70;;;12.40;1.00;;;;;;5101357;28;20456;-42
2024/03/18 03:18:55;;;;;;;7.00;5.87;;;12.40;1.00;;;;;;5099196;28;20613;-40
2024/03/18 03:21:22;;;;;;;6.27;5.67;;;12.40;1.00;;;;;;5100474;28;20249;-41
2024/03/18 03:23:48;;;;;;;5.90;5.30;;;12.40;22.60;;;;;;5100761;28;20640;-40
2024/03/18 03:26:14;;;;;;;5.97;5.37;;;12.40;50.40;;;;;;5100512;28;20689;-41
2024/03/18 03:28:39;;;;;;;7.30;6.60;;;12.40;85.10;;;;;;5101041;28;20176;-41
2024/03/18 03:31:08;;;;;;;6.30;5.70;;;12.40;99.90;;;;;;5100265;28;20546;-41
2024/03/18 03:33:34;;;;;;;6.73;6.13;;;12.40;99.90;;;;;;5100685;28;20230;-42
2024/03/18 03:36:00;;;;;;;7.70;6.27;;;12.30;99.90;;;;;;5100723;28;20832;-41
2024/03/18 03:38:26;;;;;;;6.97;6.30;;;12.30;99.90;;;;;;5100127;28;20426;-42
2024/03/18 03:40:52;;;;;;;6.30;5.70;;;12.30;99.90;;;;;;5082408;28;20440;-41
2024/03/18 03:43:21;;;;;;;6.57;5.97;;;12.30;99.90;;;;;;5082401;28;20203;-41
2024/03/18 03:46:01;;;;;;;6.40;5.60;;;12.30;99.90;;;;;;5100400;28;20462;-41
2024/03/18 03:48:39;;;;;;;6.67;6.03;;;12.30;99.90;;;;;;5100792;28;20424;-41
2024/03/18 03:51:05;;;;;;;7.53;5.67;;;12.30;99.90;;;;;;5100739;28;20867;-41
2024/03/18 03:53:34;;;;;;;6.57;5.20;;;12.30;99.90;;;;;;5100328;28;20474;-40
2024/03/18 03:56:00;;;;;;;8.40;6.27;;;12.30;99.90;;;;;;5100166;28;20562;-40
2024/03/18 03:58:26;;;;;;;7.73;6.03;;;12.30;99.90;;;;;;5099737;28;20434;-42
2024/03/18 04:00:54;;;;;;;6.20;5.60;;;12.30;99.90;;;;;;5082608;28;20419;-40
2024/03/18 04:03:24;;;;;;;6.03;5.43;;;12.30;99.90;;;;;;5099696;28;20579;-41
2024/03/18 04:05:54;;;;;;;7.77;5.43;;;12.30;99.90;;;;;;5098857;28;20470;-41
2024/03/18 04:08:23;;;;;;;6.70;5.60;;;12.30;99.90;;;;;;5098011;28;20411;-42
2024/03/18 04:10:52;;;;;;;6.90;6.30;;;12.30;99.90;;;;;;5097773;28;20521;-41
2024/03/18 04:13:19;;;;;;;6.60;5.60;;;12.30;99.90;;;;;;5081077;28;20426;-41
2024/03/18 04:15:44;;;;;;;6.90;5.40;;;12.30;99.90;;;;;;5099383;28;20437;-42
2024/03/18 04:18:11;;;;;;;6.03;4.97;;;12.30;99.90;;;;;;5098184;28;20422;-40
2024/03/18 04:20:37;;;;;;;5.93;5.43;;;12.30;99.90;;;;;;5100216;28;20348;-41
2024/03/18 04:23:05;;;;;;;6.73;5.30;;;12.30;99.90;;;;;;5097954;28;20824;-42
2024/03/18 04:25:33;;;;;;;5.60;5.10;;;12.30;99.90;;;;;;5096542;28;20481;-40
2024/03/18 04:28:02;;;;;;;5.33;4.90;;;12.30;99.90;;;;;;5097575;28;20741;-40
2024/03/18 04:30:28;;;;;;;6.43;5.70;;;12.30;99.90;;;;;;5098692;28;20731;-41
2024/03/18 04:32:54;;;;;;;6.37;5.00;;;12.30;99.90;;;;;;5097818;28;20422;-41
2024/03/18 04:35:19;;;;;;;7.43;5.10;;;12.30;99.90;;;;;;5097110;28;20422;-41
2024/03/18 04:37:46;;;;;;;7.77;5.67;;;12.30;99.90;;;;;;5098128;28;20183;-41
2024/03/18 04:40:19;;;;;;;8.37;5.70;;;12.30;99.90;;;;;;5098025;28;20274;-43
2024/03/18 04:42:45;;;;;;;6.40;5.80;;;12.30;99.90;;;;;;5095432;28;20731;-40
2024/03/18 04:45:14;;;;;;;6.43;5.60;;;12.30;99.90;;;;;;5076591;28;20493;-40
2024/03/18 04:47:44;;;;;;;9.10;6.10;;;12.30;99.90;;;;;;5094980;28;20437;-40
2024/03/18 04:50:14;;;;;;;6.40;5.27;;;12.30;99.90;;;;;;5094503;28;20415;-40
2024/03/18 04:52:40;;;;;;;8.20;5.93;;;12.20;99.90;;;;;;5095319;28;20461;-42
2024/03/18 04:55:07;;;;;;;5.57;4.70;;;12.20;99.90;;;;;;5097003;28;20493;-41
2024/03/18 04:57:36;;;;;;;5.53;4.57;;;12.20;99.90;;;;;;5097148;28;20414;-42
2024/03/18 05:00:13;;;;;;;5.77;5.20;;;12.20;99.90;;;;;;5080521;28;20426;-42
2024/03/18 05:02:42;;;;;;;8.20;5.77;;;12.20;99.90;;;;;;5098287;28;20418;-41
2024/03/18 05:05:11;;;;;;;5.90;5.40;;;12.20;99.90;;;;;;5098314;28;20470;-42
2024/03/18 05:07:36;;;;;;;5.97;5.37;;;12.20;99.90;;;;;;5098541;28;20415;-42
2024/03/18 05:10:03;;;;;;;5.80;5.07;;;12.20;99.90;;;;;;5099299;28;20627;-41
2024/03/18 05:12:29;;;;;;;9.70;5.07;;;12.20;99.90;;;;;;5097850;28;20467;-41
2024/03/18 05:14:55;;;;;;;6.40;5.40;;;12.20;99.90;;;;;;5099188;28;20442;-42
2024/03/18 05:17:27;;;;;;;7.30;5.93;;;12.20;99.90;;;;;;5080596;28;20176;-42
2024/03/18 05:19:53;;;;;;;4.90;4.40;;;12.20;99.90;;;;;;5098959;28;20669;-43
2024/03/18 05:22:19;;;;;;;6.57;5.17;;;12.20;99.90;;;;;;5097689;28;20462;-41
2024/03/18 05:24:48;;;;;;;6.00;5.10;;;12.20;99.90;;;;;;5098903;28;20476;-40
2024/03/18 05:27:23;;;;;;;5.43;4.93;;;12.20;99.90;;;;;;5096252;28;20423;-41
2024/03/18 05:29:49;;;;;;;5.53;4.93;;;12.20;99.90;;;;;;5098091;28;20766;-42
2024/03/18 05:32:20;;;;;;;7.83;5.80;;;12.20;99.90;;;;;;5098858;28;20426;-41
2024/03/18 05:34:46;;;;;;;6.87;5.67;;;12.20;99.90;;;;;;5097390;28;20259;-40
2024/03/18 05:37:15;;;;;;;6.80;6.10;;;12.20;99.90;;;;;;5096450;28;20434;-43
2024/03/18 05:39:44;;;;;;;6.13;5.10;;;12.20;99.90;;;;;;5096417;28;20181;-45
2024/03/18 05:42:09;;;;;;;6.23;5.63;;;12.20;1.00;;;;;;5096270;28;20429;-42
2024/03/18 05:44:35;;;;;;;7.10;5.43;;;12.20;1.00;;;;;;5094178;28;20418;-44
2024/03/18 05:47:01;;;;;;;6.73;6.13;;;12.20;1.00;;;;;;5093780;28;20172;-41
2024/03/18 05:49:28;;;;;;;6.10;5.50;;;12.20;1.00;;;;;;5094850;28;20180;-40
2024/03/18 05:51:54;;;;;;;6.10;5.50;;;12.20;1.00;;;;;;5094581;28;20425;-41
2024/03/18 05:54:23;;;;;;;6.97;6.27;;;12.20;1.00;;;;;;5097409;28;20497;-44
2024/03/18 05:56:49;;;;;;;7.80;6.80;;;12.20;1.00;;;;;;5081194;28;20422;-42
2024/03/18 05:59:17;;;;;;;7.33;6.33;;;12.20;1.00;;;;;;5099555;28;20857;-45
2024/03/18 06:01:43;;;;;;;6.70;6.00;;;12.20;1.00;;;;;;5100839;28;20297;-42
2024/03/18 06:04:11;;;;;;;7.10;6.40;;;12.20;1.00;;;;;;5101345;28;20509;-40
2024/03/18 06:06:38;;;;;;;6.50;5.90;;;12.20;1.00;;;;;;5100484;28;20484;-44
2024/03/18 06:09:05;;;;;;;5.37;4.87;;;12.20;1.00;;;;;;5098937;28;20418;-40
2024/03/18 06:11:31;;;;;;;9.20;5.93;;;12.20;1.00;;;;;;5099431;28;20426;-41
2024/03/18 06:13:57;;;;;;;6.90;5.60;;;12.20;1.00;;;;;;5099892;28;20430;-42
2024/03/18 06:16:26;;;;;;;5.17;4.67;;;12.20;1.00;;;;;;5099906;28;20429;-40
2024/03/18 06:18:54;;;;;;;5.80;5.20;;;12.20;1.00;;;;;;5097517;28;20467;-42
2024/03/18 06:21:20;;;;;;;6.23;5.63;;;12.20;1.00;;;;;;5098939;28;20427;-40
2024/03/18 06:23:50;;;;;;;6.13;5.53;;;12.20;1.00;;;;;;5099247;28;20519;-40
2024/03/18 06:26:19;;;;;;;5.90;5.10;;;12.30;99.90;;;;;;5100844;28;20927;-40
2024/03/18 06:28:47;;;;;;;5.83;5.33;;;12.30;99.90;;;;;;5120683;28;20930;-41
2024/03/18 06:31:13;;;;;;;6.20;5.50;;;12.30;99.90;;;;;;5120206;28;20405;-41
2024/03/18 06:33:39;;;;;;;5.63;5.13;;;12.30;99.90;;;;;;5120839;28;20405;-43
2024/03/18 06:36:12;;;;;;;6.17;5.57;;;12.30;99.90;;;;;;5121310;28;20433;-44
2024/03/18 06:38:44;;;;;;;6.53;5.10;;;12.30;99.90;;;;;;5120233;28;20457;-43
2024/03/18 06:41:11;;;;;;;6.23;5.23;;;12.40;99.90;;;;;;5122171;28;20831;-41
2024/03/18 06:43:37;;;;;;;6.03;4.87;;;12.40;99.90;;;;;;5121264;28;20495;-41
2024/03/18 06:46:09;;;;;;;6.50;5.43;;;12.50;99.90;;;;;;5120720;28;20798;-41
2024/03/18 06:48:35;;;;;;;5.67;4.87;;;12.50;99.90;;;;;;5119876;28;20471;-40
2024/03/18 06:51:05;;;;;;;5.60;4.97;;;12.50;99.90;;;;;;5101199;28;20498;-40
2024/03/18 06:53:31;;;;;;;6.10;5.10;;;12.50;99.90;;;;;;5116969;28;20743;-40
2024/03/18 06:56:00;;;;;;;5.47;5.00;;;12.50;99.90;;;;;;5117993;28;20431;-41
2024/03/18 06:58:26;;;;;;;6.50;5.20;;;12.60;99.90;;;;;;5118790;28;20633;-41
2024/03/18 07:00:52;;;;;;;5.60;5.10;;;12.60;99.90;;;;;;5117907;28;20448;-40
2024/03/18 07:03:21;;;;;;;6.03;5.53;;;12.60;99.90;;;;;;5098330;28;20535;-41
2024/03/18 07:05:47;;;;;;;6.63;6.03;;;12.60;99.90;;;;;;5116603;28;20227;-41
2024/03/18 07:08:13;;;;;;;7.17;6.03;;;12.70;99.90;;;;;;5116246;28;20561;-41
2024/03/18 07:10:38;;;;;;;6.67;5.53;;;12.70;99.90;;;;;;5098057;28;20425;-40
2024/03/18 07:13:04;;;;;;;11.30;6.50;;;12.70;99.90;;;;;;5117223;28;20164;-40
2024/03/18 07:15:30;;;;;;;8.07;6.27;;;12.70;99.90;;;;;;5115752;28;20274;-40
2024/03/18 07:17:55;;;;;;;7.50;6.80;;;12.70;99.90;;;;;;5116826;28;20670;-39
2024/03/18 07:20:21;;;;;;;6.93;6.30;;;12.70;99.90;;;;;;5118960;28;20557;-40
2024/03/18 07:22:47;;;;;;;7.30;6.17;;;12.70;99.90;;;;;;5117676;28;20176;-40
2024/03/18 07:25:17;;;;;;;10.23;7.00;;;12.70;99.90;;;;;;5116157;28;20211;-40
2024/03/18 07:27:43;;;;;;;8.13;6.70;;;12.70;99.90;;;;;;5118942;28;20183;-40
2024/03/18 07:30:11;;;;;;;6.60;6.00;;;12.70;99.90;;;;;;5100847;28;20452;-40
2024/03/18 07:32:37;;;;;;;6.87;6.17;;;12.60;1.00;;;;;;5117051;28;20417;-40
2024/03/18 07:35:04;;;;;;;6.30;5.70;;;12.60;1.00;;;;;;5116214;28;20502;-41
2024/03/18 07:37:31;;;;;;;11.83;6.80;;;12.60;1.00;;;;;;5099007;28;20525;-41
2024/03/18 07:39:58;;;;;;;9.87;6.97;;;12.60;1.00;;;;;;5117651;28;20413;-42
2024/03/18 07:42:24;;;;;;;10.83;6.27;;;12.60;1.00;;;;;;5099200;28;20711;-41
2024/03/18 07:44:56;;;;;;;7.43;6.43;;;12.60;1.00;;;;;;5119143;28;20440;-41
2024/03/18 07:47:23;;;;;;;7.57;6.77;;;12.70;1.00;;;;;;5118519;28;20437;-41
2024/03/18 07:49:49;;;;;;;8.63;6.57;;;12.70;1.00;;;;;;5118768;28;20426;-42
2024/03/18 07:52:14;;;;;;;13.77;6.60;;;12.70;1.00;;;;;;5118276;28;20547;-40
2024/03/18 07:54:42;;;;;;;12.30;7.53;;;12.70;99.90;;;;;;5099966;28;20502;-42
2024/03/18 07:57:07;;;;;;;6.77;6.20;;;12.80;99.90;;;;;;5119983;28;20179;-41
2024/03/18 07:59:33;;;;;;;8.10;6.70;;;12.80;1.00;;;;;;5119511;28;20421;-41
2024/03/18 08:01:59;;;;;;;8.97;6.80;;;12.70;1.00;;;;;;5118290;28;20176;-41
2024/03/18 08:04:26;;;;;;;6.40;5.53;;;12.70;1.00;;;;;;5119304;28;20553;-40
2024/03/18 08:06:52;;;;;;;9.30;7.30;;;12.70;1.00;;;;;;5118670;28;20365;-41
2024/03/18 08:09:18;;;;;;;6.90;6.20;;;12.70;1.00;;;;;;5119250;28;20500;-42
2024/03/18 08:11:45;;;;;;;6.30;5.53;;;12.70;1.00;;;;;;5119696;28;20453;-38
2024/03/18 08:14:11;;;;;;;7.50;5.90;;;12.70;1.00;;;;;;5120833;28;20965;-41
2024/03/18 08:16:37;;;;;;;8.63;7.00;;;12.70;1.00;;;;;;5120075;28;20478;-41
2024/03/18 08:19:03;;;;;;;7.53;6.80;;;12.70;1.00;;;;;;5118789;28;20838;-41
2024/03/18 08:21:33;;;;;;;6.73;5.87;;;12.70;1.00;;;;;;5084925;28;20533;-40
2024/03/18 08:23:59;;;;;;;7.77;6.40;;;12.70;1.00;;;;;;5120054;28;20417;-41
2024/03/18 08:26:25;;;;;;;7.53;6.70;;;12.70;1.00;;;;;;5101653;28;20461;-41
2024/03/18 08:28:51;;;;;;;7.00;6.30;;;12.70;1.00;;;;;;5119698;28;20168;-41
2024/03/18 08:31:17;;;;;;;8.83;6.53;;;12.70;1.00;;;;;;5118684;28;20572;-41
2024/03/18 08:33:42;;;;;;;7.20;6.50;;;12.70;1.00;;;;;;5118657;28;20409;-41
2024/03/18 08:36:08;;;;;;;9.10;6.87;;;12.70;1.00;;;;;;5119092;28;20207;-41
2024/03/18 08:38:34;;;;;;;6.50;5.90;;;12.70;1.00;;;;;;5119419;28;20191;-42
2024/03/18 08:40:59;;;;;;;6.90;5.93;;;12.80;1.00;;;;;;5119939;28;20255;-41
2024/03/18 08:43:25;;;;;;;6.80;5.67;;;12.80;1.00;;;;;;5119035;28;20172;-40
2024/03/18 08:45:52;;;;;;;7.13;5.97;;;12.80;1.00;;;;;;5117201;28;20209;-41
2024/03/18 08:48:18;;;;;;;6.50;5.90;;;12.80;1.00;;;;;;5101365;28;20448;-41
2024/03/18 08:50:45;;;;;;;6.37;5.63;;;12.80;1.00;;;;;;5119288;28;20429;-42
2024/03/18 08:53:12;;;;;;;6.67;5.50;;;12.80;1.00;;;;;;5117933;28;20461;-41
2024/03/18 08:55:38;;;;;;;5.00;4.33;;;12.80;1.00;;;;;;5117902;28;20469;-41
2024/03/18 08:58:03;;;;;;;4.80;2.90;;;12.90;1.00;;;;;;5119565;28;20488;-40
2024/03/18 09:00:29;;;;;;;2.60;2.30;;;13.20;32.10;;;;;;5119038;28;20416;-44
2024/03/18 09:02:55;;;;;;;3.77;1.30;;;13.60;99.90;;;;;;5118126;28;20487;-47
2024/03/18 09:05:21;;;;;;;5.17;1.57;;;14.60;99.90;;;;;;5117770;28;20302;-47
2024/03/18 09:07:46;;;;;;;8.53;1.70;;;15.70;1.00;;;;;;5116230;28;20171;-51
2024/03/18 09:10:13;;;;;;;4.17;2.17;;;17.00;99.90;;;;;;5094602;28;20376;-49
2024/03/18 09:12:40;;;;;;;4.63;1.80;;;18.00;1.00;;;;;;5093793;28;20430;-47
2024/03/18 09:15:06;;;;;;;3.73;2.17;;;18.60;99.90;;;;;;5094389;28;20361;-48
2024/03/18 09:17:32;;;;;;;4.80;2.20;;;19.20;1.00;;;;;;5077693;28;20738;-46
2024/03/18 09:19:58;;;;;;;7.20;2.30;;;19.50;99.90;;;;;;5077922;28;20870;-47
2024/03/18 09:22:23;;;;;;;3.80;2.30;;;19.80;99.90;;;;;;5096714;28;20181;-45
2024/03/18 09:24:49;;;;;;;6.23;2.77;;;20.00;99.90;;;;;;5096025;28;20433;-49
2024/03/18 09:27:15;;;;;;;5.10;2.67;;;20.20;99.90;;;;;;5095875;28;20207;-48
2024/03/18 09:29:42;;;;;;;7.70;3.30;;;20.30;99.90;;;;;;5096217;28;20492;-48
2024/03/18 09:32:08;;;;;;;9.67;3.27;;;20.40;95.30;;;;;;5095997;28;20482;-48
2024/03/18 09:34:33;;;;;;;4.00;2.50;;;20.50;76.30;;;;;;5077544;28;20428;-48
2024/03/18 09:36:59;;;;;;;7.27;2.93;;;20.50;41.90;;;;;;5095497;28;20461;-48
2024/03/18 09:39:25;;;;;;;4.73;2.70;;;20.60;25.50;;;;;;5095593;28;20215;-46
2024/03/18 09:41:53;;;;;;;4.87;2.47;;;20.70;13.90;;;;;;5094245;28;20201;-46
2024/03/18 09:44:18;;;;;;;5.17;2.80;;;20.80;3.50;;;;;;5096300;28;20180;-45
2024/03/18 09:46:44;;;;;;;3.60;2.30;;;20.80;1.00;;;;;;5077874;28;20872;-46
2024/03/18 09:49:22;;;;;;;3.93;2.30;;;20.80;1.00;;;;;;5095296;28;20426;-47
2024/03/18 09:51:49;;;;;;;4.60;2.50;;;20.80;1.00;;;;;;5096281;28;20676;-47
2024/03/18 09:54:19;;;;;;;6.70;2.67;;;20.90;1.00;;;;;;5094844;28;20462;-46
2024/03/18 09:56:54;;;;;;;9.53;2.90;;;20.90;1.00;;;;;;5094310;28;20868;-47
2024/03/18 09:59:20;;;;;;;3.37;2.43;;;20.90;1.00;;;;;;5095782;28;20422;-47
2024/03/18 10:01:45;;;;;;;4.60;2.27;;;20.90;1.00;;;;;;5095476;28;20441;-47
2024/03/18 10:04:11;;;;;;;4.83;2.57;;;21.00;1.00;;;;;;5077710;28;20180;-49
2024/03/18 10:06:39;;;;;;;2.60;2.00;;;21.00;1.00;;;;;;5077275;28;20215;-46
2024/03/18 10:09:05;;;;;;;3.57;2.40;;;21.10;1.00;;;;;;5096201;28;20251;-48
2024/03/18 10:11:31;;;;;;;5.73;3.20;;;21.10;1.00;;;;;;5095727;28;21043;-47
2024/03/18 10:13:57;;;;;;;3.33;1.90;;;21.00;1.00;;;;;;5094481;28;20789;-49
2024/03/18 10:16:22;;;;;;;5.20;3.10;;;21.10;1.00;;;;;;5094966;28;20192;-48
2024/03/18 10:18:48;;;;;;;3.83;2.50;;;21.10;1.00;;;;;;5095667;28;20429;-47
2024/03/18 10:21:14;;;;;;;3.67;2.50;;;21.10;1.00;;;;;;5094545;28;20255;-47
2024/03/18 10:23:53;;;;;;;2.93;2.13;;;21.20;1.00;;;;;;5095603;28;20230;-42
2024/03/18 10:26:19;;;;;;;3.03;2.73;;;21.10;1.00;;;;;;5095551;28;20460;-42
2024/03/18 10:28:45;;;;;;;4.90;3.83;;;20.80;1.00;;;;;;5096335;28;20484;-42
2024/03/18 10:31:16;;;;;;;6.53;4.37;;;20.40;1.00;;;;;;5078154;28;20517;-42
2024/03/18 10:33:45;;;;;;;4.80;4.30;;;19.90;1.00;;;;;;5096381;28;20398;-41
2024/03/18 10:36:26;;;;;;;5.50;4.30;;;19.40;1.00;;;;;;5095380;28;20886;-42
2024/03/18 10:39:10;;;;;;;4.03;3.60;;;18.90;1.00;;;;;;5096570;28;20418;-41
2024/03/18 10:41:39;;;;;;;7.17;4.03;;;18.50;1.00;;;;;;5095365;28;20468;-42
2024/03/18 10:44:25;;;;;;;4.73;4.27;;;18.20;13.10;;;;;;5099914;28;20826;-42
2024/03/18 10:46:51;;;;;;;5.27;3.87;;;17.80;56.00;;;;;;5082768;28;20481;-42
2024/03/18 10:49:18;;;;;;;4.33;3.93;;;17.60;99.90;;;;;;5099515;28;20426;-41
2024/03/18 10:51:48;;;;;;;7.90;4.40;;;17.40;99.90;;;;;;5100261;28;20187;-44
2024/03/18 10:54:15;;;;;;;4.60;2.97;;;17.10;99.90;;;;;;5079255;28;20450;-42
2024/03/18 10:56:44;;;;;;;4.63;3.60;;;17.00;99.90;;;;;;5078866;28;20442;-42
2024/03/18 10:59:16;;;;;;;4.03;2.77;;;16.90;1.00;;;;;;5080832;28;20505;-42
2024/03/18 11:01:42;;;;;;;4.33;3.00;;;16.70;1.00;;;;;;5080307;28;20501;-41
2024/03/18 11:04:28;;;;;;;4.97;3.60;;;16.70;1.00;;;;;;5079156;28;20412;-44
2024/03/18 11:06:57;;;;;;;3.43;3.13;;;16.50;1.00;;;;;;5079703;28;20469;-42
2024/03/18 11:09:24;;;;;;;3.93;3.17;;;16.50;55.20;;;;;;5079610;28;20900;-42
2024/03/18 11:11:50;;;;;;;4.60;4.20;;;16.40;99.90;;;;;;5079281;28;20411;-42
2024/03/18 11:14:25;;;;;;;3.97;3.60;;;16.30;99.90;;;;;;5079958;28;20427;-43
2024/03/18 11:16:52;;;;;;;5.00;3.30;;;16.20;1.00;;;;;;5080616;28;20526;-41
2024/03/18 11:19:18;;;;;;;3.77;3.23;;;16.10;1.00;;;;;;5080730;28;20527;-42
2024/03/18 11:21:44;;;;;;;5.17;4.67;;;16.00;82.80;;;;;;5079574;28;20697;-43
2024/03/18 11:24:22;;;;;;;5.83;5.23;;;15.90;99.90;;;;;;5077213;28;20427;-42
2024/03/18 11:26:54;;;;;;;4.70;4.30;;;15.80;1.00;;;;;;5078993;28;20454;-42
2024/03/18 11:29:19;;;;;;;4.50;3.70;;;15.70;1.00;;;;;;5075786;28;20446;-40
2024/03/18 11:31:52;;;;;;;5.80;3.87;;;15.60;1.00;;;;;;5078608;28;20435;-42
2024/03/18 11:34:23;;;;;;;3.83;3.43;;;15.50;99.90;;;;;;5076806;28;20199;-42
2024/03/18 11:36:49;;;;;;;3.67;3.23;;;15.50;99.90;;;;;;5078751;28;20422;-42
2024/03/18 11:39:17;;;;;;;5.97;3.33;;;15.50;1.00;;;;;;5078337;28;20422;-41
2024/03/18 11:41:43;;;;;;;4.97;3.30;;;15.50;1.00;;;;;;5077273;28;20276;-42
2024/03/18 11:44:15;;;;;;;4.43;3.10;;;15.50;1.00;;;;;;5077342;28;20836;-43
2024/03/18 11:46:42;;;;;;;4.37;3.10;;;15.50;1.00;;;;;;5077842;28;20782;-43
2024/03/18 11:49:10;;;;;;;3.80;2.67;;;15.50;94.90;;;;;;5077792;28;20456;-42
2024/03/18 11:51:36;;;;;;;4.00;2.80;;;15.60;99.90;;;;;;5078830;28;20833;-41
2024/03/18 11:54:05;;;;;;;5.27;3.73;;;15.60;49.70;;;;;;5095860;28;20500;-44
2024/03/18 11:56:32;;;;;;;4.60;4.07;;;15.60;99.90;;;;;;5119253;28;20457;-42
2024/03/18 11:58:59;;;;;;;6.97;3.70;;;15.50;99.90;;;;;;5100308;28;20498;-43
2024/03/18 12:01:27;;;;;;;5.23;4.07;;;15.50;99.90;;;;;;5085577;28;21006;-42
2024/03/18 12:03:53;;;;;;;5.83;3.80;;;15.40;1.00;;;;;;5081083;28;20521;-41
2024/03/18 12:06:19;;;;;;;3.93;3.47;;;15.40;1.00;;;;;;5099603;28;20584;-40
2024/03/18 12:08:45;;;;;;;18.10;16.27;;;15.40;1.00;;;;;;5080294;28;20196;-41
2024/03/18 12:11:11;;;;;;;24.40;21.30;;;15.40;74.60;;;;;;5099276;28;20218;-44
2024/03/18 12:13:37;;;;;;;21.93;19.73;;;15.40;99.90;;;;;;5062992;28;20305;-40
2024/03/18 12:16:03;;;;;;;16.33;14.83;;;15.40;99.90;;;;;;5095792;28;20481;-41
2024/03/18 12:18:31;;;;;;;10.77;9.77;;;15.30;99.90;;;;;;5098536;28;20445;-42
2024/03/18 12:20:57;;;;;;;7.97;7.17;;;15.30;1.00;;;;;;5096813;28;20426;-41
2024/03/18 12:29:03;;;;;;;4.43;3.60;;;15.20;1.70;;;;;;5080194;28;20426;-41
2024/03/18 12:31:30;;;;;;;4.40;3.17;;;15.10;1.00;;;;;;5097061;28;20418;-40
2024/03/18 12:33:59;;;;;;;3.60;3.10;;;15.10;1.00;;;;;;5077955;28;20735;-43
2024/03/18 12:36:25;;;;;;;2.87;2.57;;;15.10;1.00;;;;;;5098252;28;20780;-41
2024/03/18 12:38:51;;;;;;;3.63;2.57;;;15.10;1.00;;;;;;5096892;28;20832;-40
2024/03/18 12:41:21;;;;;;;3.53;2.37;;;15.10;1.00;;;;;;5078145;28;20322;-43
2024/03/18 12:43:48;;;;;;;2.93;2.20;;;15.00;1.00;;;;;;5096882;28;20418;-41
2024/03/18 12:46:18;;;;;;;4.07;1.90;;;15.00;18.20;;;;;;5078158;28;20458;-41
2024/03/18 12:48:44;;;;;;;3.20;1.93;;;15.00;87.10;;;;;;5096466;28;20787;-43
2024/03/18 12:51:11;;;;;;;4.63;2.13;;;15.10;69.70;;;;;;5096005;28;20491;-42
2024/03/18 12:53:37;;;;;;;5.13;2.90;;;15.10;7.10;;;;;;5096056;28;20618;-43
2024/03/18 12:56:05;;;;;;;3.03;2.00;;;15.20;1.00;;;;;;5093065;28;20450;-42